• Join FlightAware (Why Join?)
  • Login
  • US Flag 
01:43AM EDT


 

Airport Tracker/Info


-or-


 

Live Flight TrackerFlight Track Log ✈ N830QS ✈ 14-Aug-2013 ✈ KTEB - KDSM

Flight Track Log - Related Links

Times and Time Zones

All times are in EDT time to prevent confusion due to time zone crossing. See the N830QS flight status page for this flight to view local times or setup timezone preferences in your user account.

Time Position Orientation Groundspeed Altitude Reporting Facility
EDT Latitude Longitude Course Direction KTS MPH feet Rate Location/Type
12:23PM 40.8833 -74.0333 323° Northwest 210 242 1,300  Level New York TRACON
12:24PM 40.9167 -74.0667 323° Northwest 203 234 3,100 1,620 Climbing New York TRACON
12:25PM 40.9167 -74.1333 270° West 218 251 4,600 1,500 Climbing New York TRACON
12:26PM 40.9167 -74.2333 270° West 253 291 6,000 900 Climbing New York TRACON
12:27PM 40.9000 -74.3167 255° West 276 318 6,500 1,260 Climbing New York TRACON
12:28PM 40.9000 -74.4167 270° West 270 311 8,600 1,980 Climbing New York TRACON
12:28PM 40.9078 -74.4694 281° West 272 313 9,500 1,860 Climbing New York Center
12:29PM 40.9156 -74.5578 277° West 265 305 11,400 2,520 Climbing New York Center
12:30PM 40.9269 -74.6517 279° West 279 321 14,500 2,280 Climbing New York Center
12:31PM 40.8953 -74.7267 241° Southwest 250 288 16,000 780 Climbing New York Center
12:32PM 40.8569 -74.8178 241° Southwest 260 299 16,100 60 Climbing New York Center
12:33PM 40.8706 -74.9064 282° West 265 305 16,200 480 Climbing New York Center
12:34PM 40.8878 -75.0061 283° West 280 322 17,100 1,620 Climbing New York Center
12:35PM 40.9083 -75.1256 283° West 291 335 19,400 2,040 Climbing New York Center
12:36PM 40.8939 -75.2372 260° West 298 343 21,300 2,220 Climbing New York Center
12:37PM 40.8667 -75.3453 252° West 309 356 23,900 2,700 Climbing New York Center
12:38PM 40.8442 -75.4425 253° West 303 349 26,700 2,400 Climbing New York Center
12:39PM 40.8239 -75.5342 254° West 282 325 28,700 1,680 Climbing New York Center
12:40PM 40.8036 -75.6261 254° West 272 313 30,200 1,680 Climbing New York Center
12:41PM 40.7808 -75.7178 252° West 267 307 32,100 1,920 Climbing New York Center
12:42PM 40.7628 -75.8014 254° West 255 293 34,100 1,560 Climbing New York Center
12:43PM 40.7469 -75.8822 256° West 250 288 35,300 1,320 Climbing New York Center
12:44PM 40.7267 -75.9631 252° West 239 275 36,700 1,320 Climbing New York Center
12:45PM 40.7086 -76.0436 254° West 239 275 37,900 1,200 Climbing New York Center
12:46PM 40.6903 -76.1272 254° West 239 275 39,200 960 Climbing New York Center
12:47PM 40.6697 -76.2106 252° West 239 275 39,900 360 Climbing New York Center
12:48PM 40.6717 -76.3036 272° West 245 282 40,000  Climbing New York Center
12:49PM 40.6875 -76.4089 281° West 272 313 40,000  Level New York Center
12:50PM 40.7031 -76.5197 281° West 292 336 40,000  Level New York Center
12:51PM 40.7225 -76.6336 283° West 311 358 40,000  Level New York Center
12:52PM 40.7394 -76.7528 281° West 322 371 40,000  Level New York Center
12:53PM 40.7533 -76.8472 281° West 329 379 40,000  Level New York Center
12:54PM 40.7719 -76.9694 281° West 335 386 40,000  Level New York Center
12:56PM 40.8050 -77.1978 281° West 328 377 40,000  Level Cleveland Center
12:57PM 40.8211 -77.3178 280° West 328 377 40,000  Level Cleveland Center
12:58PM 40.8392 -77.4406 281° West 340 391 40,000  Level Cleveland Center
12:59PM 40.8550 -77.5633 280° West 340 391 40,000  Level Cleveland Center
01:00PM 40.8728 -77.6889 281° West 340 391 40,000  Level Cleveland Center
01:01PM 40.8903 -77.8117 281° West 345 397 40,000  Level Cleveland Center
01:02PM 40.9081 -77.9372 281° West 350 403 40,000  Level Cleveland Center
01:03PM 40.9233 -78.0658 279° West 350 403 40,000  Level Cleveland Center
01:04PM 40.9386 -78.1889 279° West 350 403 40,000  Level Cleveland Center
01:05PM 40.9578 -78.3231 281° West 356 410 40,000  Level Cleveland Center
01:06PM 40.9728 -78.4489 279° West 361 415 40,000  Level Cleveland Center
01:07PM 40.9897 -78.5806 280° West 361 415 40,000  Level Cleveland Center
01:08PM 41.0044 -78.7067 279° West 361 415 40,000  Level Cleveland Center
01:09PM 41.0211 -78.8356 280° West 356 410 40,000  Level Cleveland Center
01:10PM 41.0356 -78.9644 278° West 356 410 40,000  Level Cleveland Center
01:11PM 41.0497 -79.0936 278° West 351 404 40,000  Level Cleveland Center
01:12PM 41.0658 -79.2172 280° West 351 404 40,000  Level Cleveland Center
01:13PM 41.0800 -79.3492 278° West 356 410 40,000  Level Cleveland Center
01:14PM 41.0936 -79.4783 278° West 356 410 40,000  Level Cleveland Center
01:15PM 41.1075 -79.6075 278° West 356 410 40,000  Level Cleveland Center
01:16PM 41.1231 -79.7342 279° West 356 410 40,000  Level Cleveland Center
01:17PM 41.1344 -79.8692 276° West 356 410 40,000  Level Cleveland Center
01:18PM 41.1478 -80.0122 277° West 361 415 40,000  Level Cleveland Center
01:19PM 41.1628 -80.1253 280° West 361 415 40,000  Level Cleveland Center
01:20PM 41.1778 -80.2575 279° West 361 415 40,000  Level Cleveland Center
01:21PM 41.1906 -80.4011 277° West 361 415 40,000  Level Cleveland Center
01:22PM 41.2033 -80.5225 278° West 366 421 40,000  Level Cleveland Center
01:23PM 41.2158 -80.6522 277° West 366 421 40,000  Level Cleveland Center
01:24PM 41.2281 -80.7819 277° West 366 421 40,000  Level Cleveland Center
01:25PM 41.2403 -80.9117 277° West 366 421 40,000  Level Cleveland Center
01:26PM 41.2544 -81.0417 278° West 366 421 40,000  Level Cleveland Center
01:27PM 41.2664 -81.1714 277° West 361 415 40,000  Level Cleveland Center
01:28PM 41.2803 -81.3069 278° West 366 421 40,000  Level Cleveland Center
01:29PM 41.2939 -81.4344 278° West 366 421 40,000  Level Cleveland Center
01:30PM 41.3075 -81.5700 278° West 366 421 40,000  Level Cleveland Center
01:31PM 41.3186 -81.7028 276° West 371 427 40,000  Level Cleveland Center
01:32PM 41.3319 -81.8386 277° West 371 427 40,000  Level Cleveland Center
01:33PM 41.3428 -81.9714 276° West 371 427 40,000  Level Cleveland Center
01:34PM 41.3558 -82.1044 277° West 371 427 40,000  Level Cleveland Center
01:35PM 41.3622 -82.2431 274° West 371 427 40,000  Level Cleveland Center
01:36PM 41.3703 -82.3900 274° West 366 421 40,000  Level Cleveland Center
01:37PM 41.3786 -82.5286 275° West 366 421 40,000  Level Cleveland Center
01:38PM 41.3864 -82.6644 274° West 366 421 40,000  Level Cleveland Center
01:39PM 41.3922 -82.8003 273° West 372 428 40,000  Level Cleveland Center
01:40PM 41.4019 -82.9389 275° West 372 428 40,000  Level Cleveland Center
01:41PM 41.4094 -83.0778 274° West 372 428 40,000  Level Cleveland Center
01:42PM 41.4128 -83.2108 272° West 372 428 40,000  Level Cleveland Center
01:43PM 41.4200 -83.3522 274° West 372 428 40,000  Level Cleveland Center
01:44PM 41.4269 -83.4911 274° West 372 428 40,000  Level Cleveland Center
01:45PM 41.4358 -83.6300 275° West 377 434 40,000  Level Cleveland Center
01:46PM 41.4403 -83.7714 272° West 382 440 40,000  Level Cleveland Center
01:48PM 41.4539 -84.0114 274° West 383 441 40,000  Level Chicago Center
01:49PM 41.4600 -84.1511 273° West 380 437 40,000  Level Chicago Center
01:50PM 41.4669 -84.2917 274° West 381 438 40,000  Level Chicago Center
01:51PM 41.4719 -84.4331 273° West 382 440 40,000  Level Chicago Center
01:52PM 41.4781 -84.5742 273° West 382 440 40,000  Level Chicago Center
01:53PM 41.4836 -84.7150 273° West 382 440 40,000  Level Chicago Center
01:54PM 41.4900 -84.8831 273° West 380 437 40,000  Level Chicago Center
01:55PM 41.4942 -85.0233 272° West 378 435 40,000  Level Chicago Center
01:56PM 41.4986 -85.1644 272° West 378 435 40,000  Level Chicago Center
01:57PM 41.5017 -85.3067 272° West 379 436 40,000  Level Chicago Center
01:58PM 41.5044 -85.4536 271° West 383 441 40,000  Level Chicago Center
01:59PM 41.5106 -85.5992 273° West 386 444 40,000  Level Chicago Center
02:00PM 41.5164 -85.7361 273° West 369 425 40,000  Level Chicago Center
02:01PM 41.5197 -85.8800 272° West 382 440 40,000  Level Chicago Center
02:02PM 41.5244 -86.0497 272° West 381 438 40,000  Level Chicago Center
02:03PM 41.5275 -86.1917 272° West 382 440 40,000  Level Chicago Center
02:04PM 41.5297 -86.3331 271° West 381 438 40,000  Level Chicago Center
02:05PM 41.5314 -86.4772 271° West 387 445 40,000  Level Chicago Center
02:06PM 41.5339 -86.6181 271° West 380 437 40,000  Level Chicago Center
02:07PM 41.5375 -86.7786 272° West 384 442 40,000  Level Chicago Center
02:08PM 41.5408 -86.9217 272° West 386 444 40,000  Level Chicago Center
02:09PM 41.5442 -87.0625 272° West 382 440 40,000  Level Chicago Center
02:10PM 41.5469 -87.2042 272° West 382 440 40,000  Level Chicago Center
02:11PM 41.5503 -87.3733 272° West 382 440 40,000  Level Chicago Center
02:12PM 41.5517 -87.5139 271° West 381 438 40,000  Level Chicago Center
02:13PM 41.5522 -87.6553 270° West 385 443 40,000  Level Chicago Center
02:14PM 41.5542 -87.7947 271° West 382 440 40,000  Level Chicago Center
02:15PM 41.5581 -87.9592 272° West 377 434 40,000  Level Chicago Center
02:17PM 41.5606 -88.0975 271° West 382 440 40,000  Level Chicago Center
02:18PM 41.5636 -88.2364 272° West 382 440 40,000  Level Chicago Center
02:19PM 41.5486 -88.3778 262° West 396 456 40,000  Level Chicago Center
02:20PM 41.5469 -88.5481 269° West 386 444 40,000  Level Chicago Center
02:21PM 41.5472 -88.6908 270° West 388 447 40,000  Level Chicago Center
02:22PM 41.5478 -88.8339 270° West 388 447 40,000  Level Chicago Center
02:23PM 41.5486 -88.9789 270° West 392 451 40,000  Level Chicago Center
02:24PM 41.5472 -89.1219 269° West 390 449 40,000  Level Chicago Center
02:25PM 41.5494 -89.2922 271° West 386 444 40,000  Level Chicago Center
02:26PM 41.5483 -89.4319 269° West 380 437 40,000  Level Chicago Center
02:27PM 41.5478 -89.5544 270° West 374 430 40,000  Level Chicago Center
02:28PM 41.5472 -89.7200 270° West 373 429 40,000  Level Chicago Center
02:29PM 41.5461 -89.8589 269° West 375 432 40,000  Level Chicago Center
02:30PM 41.5458 -89.9964 270° West 375 432 40,000  Level Chicago Center
02:31PM 41.5442 -90.1356 269° West 377 434 40,000  Level Chicago Center
02:32PM 41.5428 -90.2742 269° West 377 434 40,000 -300 Level Chicago Center
02:33PM 41.5400 -90.4436 269° West 380 437 39,400 -1,020 Descending Chicago Center
02:34PM 41.5383 -90.5853 269° West 382 440 38,000 -720 Descending Chicago Center
02:35PM 41.5356 -90.7331 269° West 385 443 38,000 -180 Level Chicago Center
02:36PM 41.5336 -90.8761 269° West 387 445 37,700 -900 Descending Chicago Center
02:37PM 41.5311 -91.0178 269° West 386 444 36,200 -1,620 Descending Chicago Center
02:38PM 41.5292 -91.1558 269° West 378 435 34,400 -1,560 Descending Chicago Center
02:39PM 41.5256 -91.2942 268° West 376 433 33,000 -1,740 Descending Chicago Center
02:40PM 41.5225 -91.4619 269° West 380 437 30,900 -2,040 Descending Chicago Center
02:41PM 41.5192 -91.6028 268° West 383 441 28,900 -1,980 Descending Chicago Center
02:42PM 41.5144 -91.7461 268° West 387 445 26,900 -1,920 Descending Chicago Center
02:43PM 41.5100 -91.8944 268° West 401 461 24,900 -1,980 Descending Chicago Center
02:44PM 41.5044 -92.0383 267° West 396 456 22,900 -2,160 Descending Chicago Center
02:45PM 41.4994 -92.2053 268° West 385 443 20,500 -2,160 Descending Chicago Center
02:47PM 41.4939 -92.3378 267° West 372 428 18,500 -1,860 Descending Chicago Center
02:48PM 41.4889 -92.4786 267° West 365 420 16,700 -1,860 Descending Chicago Center
02:49PM 41.4839 -92.6083 267° West 355 409 14,700 -1,980 Descending Chicago Center
02:50PM 41.4786 -92.7336 267° West 343 395 12,700 -1,800 Descending Chicago Center
02:51PM 41.4736 -92.8508 267° West 330 380 11,100 -1,740 Descending Chicago Center
02:51PM 41.4758 -92.9389 272° West 289 333 9,700 -1,500 Descending Minneapolis Center
02:52PM 41.4697 -93.0036 263° West 284 327 8,900 -1,500 Descending Minneapolis Center
02:53PM 41.5033 -93.1253 290° West 284 327 7,100 -1,500 Descending Minneapolis Center
02:54PM 41.5336 -93.2189 293° West 278 320 5,800 -1,260 Descending Minneapolis Center
02:55PM 41.5647 -93.3175 293° West 270 311 4,600 -900 Descending Minneapolis Center
02:56PM 41.5850 -93.3953 289° West 265 305 4,000 -300 Descending Minneapolis Center
02:57PM 41.5992 -93.4789 283° West 236 272 4,000 -420 Level Minneapolis Center
02:58PM 41.6242 -93.5753 289° West 219 252 3,200 -780 Descending Minneapolis Center
02:59PM 41.6114 -93.6461 256° West 189 217 2,400 -840 Descending Minneapolis Center
03:00PM 41.5758 -93.6856 220° Southwest 154 177 1,600 -720 Descending Minneapolis Center
03:02PM 41.5425 -93.6692 160° South 121 139 900 -600 Descending Minneapolis Center
03:04PM 41.5340 -93.6631 North  Level Estimated